createdAt,value
2018-03-04T00:00:13.693Z,49.72
2018-03-04T00:02:41.337Z,50.35
2018-03-04T00:05:08.940Z,54.95
2018-03-04T00:07:36.510Z,54.85
2018-03-04T00:10:04.139Z,51.92
2018-03-04T00:12:31.686Z,50.35
2018-03-04T00:14:59.262Z,53.40
2018-03-04T00:17:26.853Z,51.00
2018-03-04T00:19:54.489Z,56.88
2018-03-04T00:22:33.770Z,54.55
2018-03-04T00:25:01.356Z,52.22
2018-03-04T00:27:28.977Z,51.28
2018-03-04T00:29:56.486Z,51.42
2018-03-04T00:32:24.047Z,51.80
2018-03-04T00:34:51.884Z,53.72
2018-03-04T00:37:19.444Z,50.97
2018-03-04T00:39:47.818Z,51.95
2018-03-04T00:42:16.253Z,54.63
2018-03-04T00:44:44.057Z,50.70
2018-03-04T00:47:11.610Z,52.10
2018-03-04T00:49:39.193Z,55.30
2018-03-04T00:52:06.793Z,50.55
2018-03-04T00:54:34.355Z,56.22
2018-03-04T00:57:02.723Z,53.83
2018-03-04T00:59:30.350Z,52.05
2018-03-04T01:01:58.257Z,56.97
2018-03-04T01:04:26.568Z,49.80
2018-03-04T01:06:54.149Z,49.58
2018-03-04T01:09:21.729Z,54.58
2018-03-04T01:11:49.379Z,53.85
2018-03-04T01:14:16.949Z,54.50
2018-03-04T01:16:44.520Z,53.47
2018-03-04T01:19:12.049Z,53.25
2018-03-04T01:21:39.588Z,53.78
2018-03-04T01:24:07.147Z,53.80
2018-03-04T01:26:34.723Z,51.35
2018-03-04T01:29:02.281Z,52.38
2018-03-04T01:31:29.862Z,52.67
2018-03-04T01:33:57.452Z,53.22
2018-03-04T01:36:25.801Z,51.15
2018-03-04T01:38:53.379Z,53.58
2018-03-04T01:41:21.397Z,54.67
2018-03-04T01:43:48.977Z,53.20
2018-03-04T01:46:16.557Z,52.03
2018-03-04T01:48:45.051Z,50.35
2018-03-04T01:51:12.618Z,51.53
2018-03-04T01:53:40.957Z,51.42
2018-03-04T01:56:08.492Z,53.70
2018-03-04T01:58:36.049Z,54.80
2018-03-04T02:01:03.617Z,50.88
2018-03-04T02:03:31.177Z,54.78
2018-03-04T02:05:58.766Z,53.60
2018-03-04T02:08:26.331Z,52.25
2018-03-04T02:10:54.250Z,56.95
2018-03-04T02:13:21.839Z,52.95
2018-03-04T02:15:49.421Z,54.78
2018-03-04T02:18:18.757Z,53.33
2018-03-04T02:20:47.122Z,53.38
2018-03-04T02:23:15.463Z,55.20
2018-03-04T02:25:44.728Z,56.37
2018-03-04T02:28:12.307Z,51.40
2018-03-04T02:30:39.885Z,53.97
2018-03-04T02:33:07.444Z,56.92
2018-03-04T02:35:36.106Z,55.95
2018-03-04T02:38:03.775Z,53.72
2018-03-04T02:40:31.692Z,52.13
2018-03-04T02:43:01.071Z,51.35
2018-03-04T02:45:28.665Z,52.15
2018-03-04T02:47:57.749Z,56.30
2018-03-04T02:50:26.068Z,56.45
2018-03-04T02:52:53.700Z,55.38
2018-03-04T02:55:21.276Z,54.28
2018-03-04T02:57:48.828Z,54.58
2018-03-04T03:00:16.468Z,58.22
2018-03-04T03:02:44.785Z,55.28
2018-03-04T03:05:12.452Z,56.92
2018-03-04T03:07:40.250Z,54.53
2018-03-04T03:10:08.645Z,56.35
2018-03-04T03:12:36.265Z,57.10
2018-03-04T03:15:03.897Z,53.92
2018-03-04T03:17:31.493Z,54.40
2018-03-04T03:19:59.038Z,53.60
2018-03-04T03:22:26.607Z,56.00
2018-03-04T03:24:55.177Z,59.00
2018-03-04T03:27:22.736Z,59.75
2018-03-04T03:29:50.356Z,54.15
2018-03-04T03:32:17.893Z,53.10
2018-03-04T03:34:45.522Z,56.92
2018-03-04T03:37:13.377Z,52.88
2018-03-04T03:39:40.915Z,57.85
2018-03-04T03:42:09.276Z,54.30
2018-03-04T03:44:36.885Z,55.75
2018-03-04T03:47:04.471Z,55.33
2018-03-04T03:49:32.137Z,53.22
2018-03-04T03:51:59.823Z,56.35
2018-03-04T03:54:28.258Z,55.67
2018-03-04T03:56:55.895Z,56.65
2018-03-04T03:59:23.519Z,54.75
2018-03-04T04:01:51.900Z,53.95
2018-03-04T04:04:19.514Z,58.78
2018-03-04T04:06:47.072Z,54.88
2018-03-04T04:09:14.679Z,57.00
2018-03-04T04:11:43.062Z,56.88
2018-03-04T04:14:10.855Z,56.10
2018-03-04T04:16:38.475Z,57.85
2018-03-04T04:19:06.847Z,55.10
2018-03-04T04:21:34.456Z,58.03
2018-03-04T04:24:02.088Z,56.37
2018-03-04T04:26:31.086Z,57.60
2018-03-04T04:28:59.240Z,52.67
2018-03-04T04:31:26.838Z,57.35
2018-03-04T04:33:54.440Z,56.20
2018-03-04T04:36:22.094Z,59.67
2018-03-04T04:38:49.726Z,57.13
2018-03-04T04:41:18.128Z,57.67
2018-03-04T04:43:46.210Z,56.08
2018-03-04T04:46:13.863Z,59.35
2018-03-04T04:48:41.479Z,57.30
2018-03-04T04:51:09.063Z,56.95
2018-03-04T04:53:36.717Z,58.95
2018-03-04T04:56:04.321Z,58.03
2018-03-04T04:58:31.899Z,58.05
2018-03-04T05:00:59.555Z,56.60
2018-03-04T05:03:27.150Z,62.08
2018-03-04T05:05:55.792Z,55.03
2018-03-04T05:08:23.403Z,61.95
2018-03-04T05:10:51.811Z,58.78
2018-03-04T05:13:19.439Z,57.75
2018-03-04T05:15:47.812Z,58.90
2018-03-04T05:18:16.173Z,56.78
2018-03-04T05:20:44.541Z,55.88
2018-03-04T05:23:12.134Z,56.80
2018-03-04T05:25:40.509Z,59.60
2018-03-04T05:28:08.113Z,55.72
2018-03-04T05:30:35.992Z,61.25
2018-03-04T05:33:03.587Z,53.53
2018-03-04T05:35:31.192Z,56.60
2018-03-04T05:37:59.511Z,57.13
2018-03-04T05:40:27.126Z,56.83
2018-03-04T05:42:54.773Z,56.37
2018-03-04T05:45:22.434Z,59.10
2018-03-04T05:47:50.871Z,54.75
2018-03-04T05:50:18.538Z,55.40
2018-03-04T05:52:46.127Z,57.53
2018-03-04T05:55:15.230Z,56.67
2018-03-04T05:57:43.589Z,57.97
2018-03-04T06:00:11.221Z,59.55
2018-03-04T06:02:38.835Z,60.83
2018-03-04T06:05:07.244Z,56.35
2018-03-04T06:07:35.430Z,58.47
2018-03-04T06:10:03.055Z,58.03
2018-03-04T06:12:30.677Z,55.60
2018-03-04T06:14:58.288Z,56.17
2018-03-04T06:17:25.878Z,54.42
2018-03-04T06:19:53.518Z,56.85
2018-03-04T06:22:21.506Z,56.42
2018-03-04T06:24:49.123Z,57.45
2018-03-04T06:27:17.457Z,56.75
2018-03-04T06:29:45.095Z,58.30
2018-03-04T06:32:12.683Z,54.20
2018-03-04T06:34:40.322Z,58.63
2018-03-04T06:37:07.962Z,55.38
2018-03-04T06:39:35.564Z,59.83
2018-03-04T06:42:03.173Z,58.55
2018-03-04T06:44:31.546Z,55.25
2018-03-04T06:46:59.189Z,58.08
2018-03-04T06:49:27.575Z,58.00
2018-03-04T06:51:55.231Z,60.90
2018-03-04T06:54:22.840Z,55.95
2018-03-04T06:56:50.437Z,54.45
2018-03-04T06:59:18.012Z,53.67
2018-03-04T07:01:45.581Z,53.95
2018-03-04T07:04:14.941Z,57.97
2018-03-04T07:06:43.327Z,55.95
2018-03-04T07:09:10.906Z,54.28
2018-03-04T07:11:38.556Z,56.20
2018-03-04T07:14:06.452Z,58.58
2018-03-04T07:16:34.062Z,56.67
2018-03-04T07:19:01.679Z,56.72
2018-03-04T07:21:29.338Z,54.78
2018-03-04T07:23:56.976Z,56.08
2018-03-04T07:26:25.379Z,54.13
2018-03-04T07:28:53.816Z,56.70
2018-03-04T07:31:21.397Z,57.55
2018-03-04T07:33:49.025Z,54.83
2018-03-04T07:36:16.638Z,56.47
2018-03-04T07:38:45.002Z,56.47
2018-03-04T07:41:12.637Z,56.22
2018-03-04T07:43:40.244Z,58.83
2018-03-04T07:46:07.860Z,58.95
2018-03-04T07:48:35.488Z,54.67
2018-03-04T07:51:03.086Z,53.45
2018-03-04T07:53:30.711Z,56.40
2018-03-04T07:55:58.583Z,57.67
2018-03-04T07:58:26.236Z,55.38
2018-03-04T08:00:53.850Z,57.95
2018-03-04T08:03:21.468Z,57.35
2018-03-04T08:05:49.168Z,58.42
2018-03-04T08:08:17.468Z,60.88
2018-03-04T08:10:45.083Z,55.05
2018-03-04T08:13:13.601Z,56.53
2018-03-04T08:15:41.199Z,55.42
2018-03-04T08:18:09.646Z,55.55
2018-03-04T08:20:37.268Z,56.45
2018-03-04T08:23:04.881Z,51.75
2018-03-04T08:25:33.263Z,52.30
2018-03-04T08:28:13.456Z,57.70
2018-03-04T08:30:41.035Z,51.60
2018-03-04T08:33:08.700Z,54.88
2018-03-04T08:35:36.294Z,55.33
2018-03-04T08:38:03.894Z,54.97
2018-03-04T08:40:31.482Z,54.38
2018-03-04T08:42:59.143Z,53.97
2018-03-04T08:45:26.769Z,58.33
2018-03-04T08:47:54.536Z,56.25
2018-03-04T08:50:22.152Z,56.10
2018-03-04T08:52:50.134Z,50.40
2018-03-04T08:55:18.582Z,53.42
2018-03-04T08:57:46.201Z,53.30
2018-03-04T09:00:13.827Z,53.97
2018-03-04T09:02:41.420Z,55.40
2018-03-04T09:05:09.014Z,53.80
2018-03-04T09:07:36.594Z,54.60
2018-03-04T09:10:05.076Z,53.70
2018-03-04T09:12:32.780Z,54.85
2018-03-04T09:15:00.418Z,54.03
2018-03-04T09:17:28.079Z,51.10
2018-03-04T09:19:56.097Z,55.40
2018-03-04T09:22:23.724Z,50.38
2018-03-04T09:24:52.150Z,51.63
2018-03-04T09:27:19.765Z,55.05
2018-03-04T09:29:48.149Z,52.13
2018-03-04T09:32:16.695Z,52.72
2018-03-04T09:34:44.732Z,54.25
2018-03-04T09:37:12.397Z,54.50
2018-03-04T09:39:40.169Z,53.13
2018-03-04T09:42:07.815Z,53.20
2018-03-04T09:44:35.425Z,50.12
2018-03-04T09:47:03.053Z,50.00
2018-03-04T09:49:30.700Z,51.75
2018-03-04T09:51:58.319Z,51.50
2018-03-04T09:54:25.905Z,55.15
2018-03-04T09:56:53.990Z,51.30
2018-03-04T09:59:22.533Z,51.65
2018-03-04T10:01:50.944Z,47.85
2018-03-04T10:04:19.221Z,52.90
2018-03-04T10:06:46.828Z,51.40
2018-03-04T10:09:14.465Z,47.13
2018-03-04T10:11:42.120Z,52.33
2018-03-04T10:14:09.738Z,51.63
2018-03-04T10:16:38.924Z,48.80
2018-03-04T10:19:06.520Z,49.38
2018-03-04T10:21:34.451Z,52.17
2018-03-04T10:24:02.047Z,50.22
2018-03-04T10:26:29.642Z,49.00
2018-03-04T10:28:57.238Z,49.08
2018-03-04T10:31:25.945Z,48.75
2018-03-04T10:33:53.566Z,47.92
2018-03-04T10:36:21.170Z,47.30
2018-03-04T10:38:48.776Z,52.25
2018-03-04T10:41:17.859Z,49.28
2018-03-04T10:43:45.473Z,48.70
2018-03-04T10:46:13.135Z,48.58
2018-03-04T10:48:40.765Z,46.97
2018-03-04T10:51:08.386Z,44.90
2018-03-04T10:53:36.008Z,49.42
2018-03-04T10:56:03.620Z,46.60
2018-03-04T10:58:31.270Z,48.42
2018-03-04T11:01:10.505Z,48.63
2018-03-04T11:03:38.240Z,46.90
2018-03-04T11:06:05.826Z,47.38
2018-03-04T11:08:34.288Z,45.28
2018-03-04T11:11:01.990Z,41.33
2018-03-04T11:13:30.050Z,44.70
2018-03-04T11:15:57.647Z,47.62
2018-03-04T11:18:25.332Z,46.10
2018-03-04T11:20:52.967Z,46.83
2018-03-04T11:23:20.606Z,46.65
2018-03-04T11:25:48.220Z,45.67
2018-03-04T11:28:16.910Z,44.33
2018-03-04T11:30:44.484Z,44.85
2018-03-04T11:33:12.648Z,45.17
2018-03-04T11:35:40.248Z,47.20
2018-03-04T11:38:07.860Z,45.08
2018-03-04T11:40:35.466Z,44.30
2018-03-04T11:43:03.053Z,43.65
2018-03-04T11:45:30.649Z,43.00
2018-03-04T11:47:59.153Z,40.30
2018-03-04T11:50:26.830Z,46.22
2018-03-04T11:52:54.395Z,44.95
2018-03-04T11:55:22.032Z,44.05
2018-03-04T11:57:49.628Z,41.50
2018-03-04T12:00:17.269Z,43.58
2018-03-04T12:02:44.920Z,41.30
2018-03-04T12:05:12.523Z,38.38
2018-03-04T12:07:40.161Z,37.80
2018-03-04T12:10:07.750Z,39.40
2018-03-04T12:12:35.356Z,37.65
2018-03-04T12:15:03.725Z,39.13
2018-03-04T12:17:33.052Z,39.20
2018-03-04T12:20:00.714Z,40.67
2018-03-04T12:22:28.391Z,37.30
2018-03-04T12:24:55.966Z,36.03
2018-03-04T12:27:23.622Z,37.80
2018-03-04T12:29:51.370Z,38.05
2018-03-04T12:32:19.258Z,36.70
2018-03-04T12:34:46.877Z,35.10
2018-03-04T12:37:14.437Z,33.08
2018-03-04T12:39:42.100Z,33.88
2018-03-04T12:42:09.751Z,34.30
2018-03-04T12:44:38.180Z,33.17
2018-03-04T12:47:05.793Z,32.17
2018-03-04T12:49:34.161Z,31.92
2018-03-04T12:52:02.574Z,30.23
2018-03-04T12:54:30.191Z,31.90
2018-03-04T12:56:57.780Z,32.60
2018-03-04T12:59:25.527Z,30.73
2018-03-04T13:01:53.289Z,35.05
2018-03-04T13:04:21.662Z,34.25
2018-03-04T13:06:49.249Z,34.45
2018-03-04T13:09:17.623Z,32.90
2018-03-04T13:11:45.288Z,30.15
2018-03-04T13:14:14.597Z,32.33
2018-03-04T13:16:42.950Z,29.00
2018-03-04T13:19:11.346Z,30.15
2018-03-04T13:21:38.946Z,30.30
2018-03-04T13:24:06.537Z,29.63
2018-03-04T13:26:34.185Z,27.52
2018-03-04T13:29:01.881Z,29.80
2018-03-04T13:31:30.381Z,32.33
2018-03-04T13:33:57.967Z,26.58
2018-03-04T13:36:25.567Z,26.90
2018-03-04T13:38:53.227Z,24.70
2018-03-04T13:41:20.818Z,27.33
2018-03-04T13:43:48.520Z,25.15
2018-03-04T13:46:16.961Z,29.75
2018-03-04T13:48:44.633Z,25.65
2018-03-04T13:51:13.084Z,26.08
2018-03-04T13:53:41.275Z,26.77
2018-03-04T13:56:08.879Z,31.00
2018-03-04T13:58:36.615Z,25.30
2018-03-04T14:01:04.295Z,29.75
2018-03-04T14:03:31.920Z,32.22
2018-03-04T14:06:00.385Z,26.92
2018-03-04T14:08:28.912Z,27.70
2018-03-04T14:10:56.498Z,28.77
2018-03-04T14:13:24.879Z,26.42
2018-03-04T14:15:53.291Z,24.75
2018-03-04T14:18:20.887Z,23.55
2018-03-04T14:20:48.509Z,27.05
2018-03-04T14:23:16.140Z,25.60
2018-03-04T14:25:43.738Z,24.87
2018-03-04T14:28:11.395Z,24.55
2018-03-04T14:30:38.986Z,20.80
2018-03-04T14:33:06.621Z,22.60
2018-03-04T14:35:35.011Z,22.60
2018-03-04T14:38:03.856Z,21.65
2018-03-04T14:40:32.567Z,20.40
2018-03-04T14:43:00.153Z,23.08
2018-03-04T14:45:27.789Z,18.77
2018-03-04T14:47:55.518Z,20.85
2018-03-04T14:50:23.123Z,23.15
2018-03-04T14:52:50.726Z,19.92
2018-03-04T14:55:18.365Z,21.80
2018-03-04T14:57:45.933Z,19.52
2018-03-04T15:00:13.620Z,20.85
2018-03-04T15:02:42.299Z,21.12
2018-03-04T15:05:09.890Z,19.30
2018-03-04T15:07:37.470Z,19.37
2018-03-04T15:10:05.084Z,19.20
2018-03-04T15:12:32.704Z,19.73
2018-03-04T15:15:00.340Z,19.60
2018-03-04T15:17:27.997Z,20.33
2018-03-04T15:19:55.575Z,20.45
2018-03-04T15:22:23.969Z,18.30
2018-03-04T15:24:51.590Z,20.60
2018-03-04T15:27:19.228Z,20.08
2018-03-04T15:29:46.856Z,21.23
2018-03-04T15:32:15.230Z,23.23
2018-03-04T15:34:43.704Z,23.38
2018-03-04T15:37:11.387Z,21.85
2018-03-04T15:39:39.762Z,24.80
2018-03-04T15:42:09.222Z,27.15
2018-03-04T15:44:36.855Z,24.27
2018-03-04T15:47:04.821Z,25.95
2018-03-04T15:49:32.442Z,25.88
2018-03-04T15:52:00.103Z,26.23
2018-03-04T15:54:28.884Z,27.85
2018-03-04T15:56:56.502Z,28.25
2018-03-04T15:59:24.197Z,27.75
2018-03-04T16:01:51.804Z,28.98
2018-03-04T16:04:20.290Z,29.55
2018-03-04T16:06:47.998Z,28.12
2018-03-04T16:09:15.625Z,28.05
2018-03-04T16:11:44.386Z,28.90
2018-03-04T16:14:12.804Z,32.20
2018-03-04T16:16:40.463Z,27.92
2018-03-04T16:19:08.477Z,29.85
2018-03-04T16:21:36.089Z,28.58
2018-03-04T16:24:03.724Z,29.80
2018-03-04T16:26:32.110Z,32.17
2018-03-04T16:28:59.738Z,30.88
2018-03-04T16:31:27.358Z,29.73
2018-03-04T16:33:54.980Z,30.90
2018-03-04T16:36:23.368Z,30.83
2018-03-04T16:38:51.039Z,29.73
2018-03-04T16:41:18.668Z,29.73
2018-03-04T16:43:46.314Z,30.62
2018-03-04T16:46:13.905Z,31.25
2018-03-04T16:48:42.290Z,32.00
2018-03-04T16:51:10.692Z,27.65
2018-03-04T16:53:38.308Z,29.10
2018-03-04T16:56:05.925Z,30.83
2018-03-04T16:58:34.550Z,27.65
2018-03-04T17:01:02.306Z,29.75
2018-03-04T17:03:29.938Z,31.27
2018-03-04T17:05:57.653Z,30.42
2018-03-04T17:08:26.048Z,27.33
2018-03-04T17:10:54.394Z,27.35
2018-03-04T17:13:22.058Z,26.62
2018-03-04T17:15:49.984Z,26.73
2018-03-04T17:18:18.235Z,27.60
2018-03-04T17:20:45.846Z,29.58
2018-03-04T17:23:13.576Z,26.35
2018-03-04T17:25:41.267Z,26.60
2018-03-04T17:28:09.080Z,26.92
2018-03-04T17:30:37.458Z,26.33
2018-03-04T17:33:05.838Z,24.75
2018-03-04T17:35:33.477Z,25.95
2018-03-04T17:38:01.109Z,26.77
2018-03-04T17:40:28.725Z,26.55
2018-03-04T17:42:56.390Z,24.80
2018-03-04T17:45:24.008Z,25.67
2018-03-04T17:47:51.651Z,24.55
2018-03-04T17:50:19.261Z,24.60
2018-03-04T17:52:47.650Z,25.65
2018-03-04T17:55:16.188Z,24.33
2018-03-04T17:57:43.804Z,26.42
2018-03-04T18:00:13.006Z,25.05
2018-03-04T18:02:40.665Z,24.75
2018-03-04T18:05:08.308Z,24.30
2018-03-04T18:07:37.349Z,23.17
2018-03-04T18:10:04.992Z,22.25
2018-03-04T18:12:32.599Z,22.37
2018-03-04T18:15:00.379Z,21.80
2018-03-04T18:17:28.791Z,20.77
2018-03-04T18:19:56.410Z,21.05
2018-03-04T18:22:24.952Z,19.80
2018-03-04T18:24:52.555Z,19.80
2018-03-04T18:27:20.186Z,20.12
2018-03-04T18:29:47.821Z,17.77
2018-03-04T18:32:15.427Z,22.58
2018-03-04T18:34:43.871Z,21.08
2018-03-04T18:37:11.546Z,19.05
2018-03-04T18:39:39.192Z,18.02
2018-03-04T18:42:06.894Z,19.48
2018-03-04T18:44:34.602Z,19.05
2018-03-04T18:47:02.194Z,19.20
2018-03-04T18:49:30.636Z,18.75
2018-03-04T18:51:59.027Z,16.55
2018-03-04T18:54:26.802Z,16.92
2018-03-04T18:56:54.461Z,19.02
2018-03-04T18:59:22.097Z,21.35
2018-03-04T19:01:50.528Z,16.40
2018-03-04T19:04:19.054Z,19.00
2018-03-04T19:06:47.430Z,19.20
2018-03-04T19:09:15.228Z,18.30
2018-03-04T19:11:42.913Z,19.52
2018-03-04T19:14:10.547Z,17.30
2018-03-04T19:16:38.166Z,17.52
2018-03-04T19:19:06.059Z,19.23
2018-03-04T19:21:34.562Z,17.17
2018-03-04T19:24:02.224Z,18.73
2018-03-04T19:26:29.851Z,17.50
2018-03-04T19:28:57.510Z,16.85
2018-03-04T19:31:25.127Z,18.25
2018-03-04T19:33:52.759Z,17.42
2018-03-04T19:36:21.207Z,19.42
2018-03-04T19:38:48.830Z,17.52
2018-03-04T19:41:16.467Z,17.33
2018-03-04T19:43:44.117Z,18.48
2018-03-04T19:46:13.515Z,16.98
2018-03-04T19:48:42.046Z,16.77
2018-03-04T19:51:09.728Z,16.10
2018-03-04T19:53:37.380Z,19.98
2018-03-04T19:56:05.889Z,18.20
2018-03-04T19:58:33.533Z,19.50
2018-03-04T20:01:01.985Z,20.33
2018-03-04T20:03:29.587Z,19.25
2018-03-04T20:05:57.212Z,18.95
2018-03-04T20:08:24.923Z,17.50
2018-03-04T20:10:53.301Z,17.37
2018-03-04T20:13:21.344Z,19.27
2018-03-04T20:15:48.949Z,18.85
2018-03-04T20:18:16.590Z,17.45
2018-03-04T20:20:44.249Z,19.20
2018-03-04T20:23:11.898Z,21.02
2018-03-04T20:25:40.398Z,19.30
2018-03-04T20:28:08.849Z,19.87
2018-03-04T20:30:36.535Z,17.95
2018-03-04T20:33:04.922Z,19.92
2018-03-04T20:35:33.403Z,17.92
2018-03-04T20:38:01.779Z,20.60
2018-03-04T20:40:29.406Z,20.40
2018-03-04T20:42:56.980Z,21.55
2018-03-04T20:45:25.327Z,23.05
2018-03-04T20:47:53.784Z,21.73
2018-03-04T20:50:21.428Z,21.40
2018-03-04T20:52:49.863Z,21.98
2018-03-04T20:55:17.469Z,21.12
2018-03-04T20:57:45.065Z,22.52
2018-03-04T21:00:12.674Z,22.67
2018-03-04T21:02:40.245Z,23.27
2018-03-04T21:05:07.906Z,23.75
2018-03-04T21:07:35.622Z,23.45
2018-03-04T21:10:03.252Z,24.65
2018-03-04T21:12:31.618Z,22.08
2018-03-04T21:14:59.987Z,22.00
2018-03-04T21:17:28.474Z,23.80
2018-03-04T21:19:56.557Z,26.00
2018-03-04T21:22:24.178Z,22.90
2018-03-04T21:24:51.757Z,25.40
2018-03-04T21:27:19.431Z,24.10
2018-03-04T21:29:47.101Z,22.90
2018-03-04T21:32:14.715Z,24.80
2018-03-04T21:34:42.343Z,22.27
2018-03-04T21:37:09.936Z,26.12
2018-03-04T21:39:37.536Z,24.95
2018-03-04T21:42:05.148Z,25.45
2018-03-04T21:44:32.776Z,25.65
2018-03-04T21:47:01.146Z,25.67
2018-03-04T21:49:29.572Z,23.62
2018-03-04T21:51:57.207Z,24.40
2018-03-04T21:54:24.824Z,28.23
2018-03-04T21:56:52.435Z,27.67
2018-03-04T21:59:20.311Z,27.52
2018-03-04T22:01:48.039Z,25.60
2018-03-04T22:04:16.427Z,27.33
2018-03-04T22:06:44.752Z,27.60
2018-03-04T22:09:12.362Z,25.88
2018-03-04T22:11:40.777Z,28.85
2018-03-04T22:14:09.163Z,26.05
2018-03-04T22:16:37.189Z,28.40
2018-03-04T22:19:04.817Z,30.12
2018-03-04T22:21:32.762Z,27.00
2018-03-04T22:24:00.400Z,26.42
2018-03-04T22:26:28.747Z,30.35
2018-03-04T22:28:58.104Z,32.13
2018-03-04T22:31:25.705Z,29.20
2018-03-04T22:33:53.311Z,31.30
2018-03-04T22:36:20.942Z,28.95
2018-03-04T22:38:49.302Z,28.67
2018-03-04T22:41:16.895Z,35.45
2018-03-04T22:43:44.482Z,32.15
2018-03-04T22:46:12.114Z,29.20
2018-03-04T22:48:39.715Z,27.35
2018-03-04T22:51:07.368Z,28.92
2018-03-04T22:53:34.948Z,29.55
2018-03-04T22:56:02.569Z,28.65
2018-03-04T22:58:30.805Z,31.05
2018-03-04T23:00:58.720Z,27.05
2018-03-04T23:03:26.338Z,27.02
2018-03-04T23:05:53.924Z,25.90
2018-03-04T23:08:21.530Z,23.95
2018-03-04T23:10:50.328Z,24.30
2018-03-04T23:13:17.920Z,22.90
2018-03-04T23:15:46.277Z,23.08
2018-03-04T23:18:13.883Z,22.05
2018-03-04T23:20:41.679Z,21.23
2018-03-04T23:23:09.283Z,21.37
2018-03-04T23:25:37.686Z,18.70
2018-03-04T23:28:05.246Z,20.37
2018-03-04T23:30:32.877Z,20.95
2018-03-04T23:33:01.254Z,21.70
2018-03-04T23:35:29.125Z,21.40
2018-03-04T23:37:56.709Z,21.92
2018-03-04T23:40:24.308Z,21.30
2018-03-04T23:42:51.904Z,20.33
2018-03-04T23:45:19.456Z,19.62
2018-03-04T23:47:47.220Z,18.12
2018-03-04T23:50:14.877Z,20.77
2018-03-04T23:52:42.475Z,16.62
2018-03-04T23:55:10.104Z,19.05
2018-03-04T23:57:37.680Z,20.05
